createdAt,value
2018-06-03T00:02:25.372Z,20.28
2018-06-03T00:04:51.466Z,20.19
2018-06-03T00:07:17.453Z,20.26
2018-06-03T00:09:43.383Z,20.17
2018-06-03T00:12:09.276Z,20.19
2018-06-03T00:14:35.172Z,20.02
2018-06-03T00:17:01.069Z,20.07
2018-06-03T00:19:26.992Z,20.00
2018-06-03T00:21:52.887Z,20.01
2018-06-03T00:24:19.722Z,20.01
2018-06-03T00:26:45.984Z,20.09
2018-06-03T00:29:11.870Z,20.07
2018-06-03T00:31:37.755Z,20.07
2018-06-03T00:34:03.701Z,20.04
2018-06-03T00:36:42.844Z,20.05
2018-06-03T00:39:08.775Z,20.00
2018-06-03T00:41:34.680Z,20.05
2018-06-03T00:44:00.584Z,20.07
2018-06-03T00:46:26.516Z,20.14
2018-06-03T00:48:52.399Z,20.05
2018-06-03T00:51:18.341Z,20.07
2018-06-03T00:53:44.355Z,20.08
2018-06-03T00:56:22.566Z,20.04
2018-06-03T00:58:48.535Z,20.03
2018-06-03T01:01:14.463Z,20.01
2018-06-03T01:03:40.355Z,20.02
2018-06-03T01:06:06.309Z,20.01
2018-06-03T01:08:32.205Z,19.96
2018-06-03T01:10:58.773Z,19.98
2018-06-03T01:13:24.688Z,19.93
2018-06-03T01:15:50.631Z,19.94
2018-06-03T01:18:16.506Z,20.00
2018-06-03T01:20:45.198Z,19.99
2018-06-03T01:23:11.991Z,19.93
2018-06-03T01:25:37.973Z,19.91
2018-06-03T01:28:04.973Z,19.99
2018-06-03T01:30:30.850Z,19.96
2018-06-03T01:32:56.762Z,20.04
2018-06-03T01:36:00.976Z,19.59
2018-06-03T01:38:28.280Z,19.55
2018-06-03T01:40:55.395Z,19.57
2018-06-03T01:43:22.592Z,19.52
2018-06-03T01:45:49.693Z,19.50
2018-06-03T01:48:16.833Z,19.55
2018-06-03T01:50:44.096Z,19.55
2018-06-03T01:53:11.252Z,19.64
2018-06-03T01:55:38.680Z,19.58
2018-06-03T01:58:05.900Z,19.55
2018-06-03T02:00:33.425Z,19.48
2018-06-03T02:03:00.622Z,19.53
2018-06-03T02:05:27.779Z,19.55
2018-06-03T02:07:55.117Z,19.58
2018-06-03T02:10:22.265Z,19.57
2018-06-03T02:12:49.411Z,19.51
2018-06-03T02:15:16.618Z,19.58
2018-06-03T02:17:43.742Z,19.50
2018-06-03T02:20:10.935Z,19.55
2018-06-03T02:22:38.476Z,19.45
2018-06-03T02:25:05.625Z,19.50
2018-06-03T02:27:33.194Z,19.50
2018-06-03T02:30:00.559Z,19.52
2018-06-03T02:32:34.555Z,19.45
2018-06-03T02:35:01.681Z,19.50
2018-06-03T02:37:28.836Z,19.50
2018-06-03T02:39:56.132Z,19.53
2018-06-03T02:42:23.284Z,19.52
2018-06-03T02:44:50.404Z,19.44
2018-06-03T02:47:17.597Z,19.52
2018-06-03T02:49:44.765Z,19.49
2018-06-03T02:52:12.007Z,19.49
2018-06-03T02:54:39.167Z,19.44
2018-06-03T02:57:06.320Z,19.48
2018-06-03T02:59:33.451Z,19.49
2018-06-03T03:02:01.131Z,19.48
2018-06-03T03:04:28.352Z,19.48
2018-06-03T03:06:55.487Z,19.39
2018-06-03T03:09:22.653Z,19.44
2018-06-03T03:11:49.750Z,19.39
2018-06-03T03:14:16.852Z,19.39
2018-06-03T03:16:44.151Z,19.38
2018-06-03T03:19:11.317Z,19.30
2018-06-03T03:21:39.455Z,19.32
2018-06-03T03:24:06.614Z,19.29
2018-06-03T03:26:33.717Z,19.37
2018-06-03T03:29:00.916Z,19.36
2018-06-03T03:31:29.176Z,19.43
2018-06-03T03:33:56.295Z,19.43
2018-06-03T03:36:23.441Z,19.48
2018-06-03T03:38:50.616Z,19.41
2018-06-03T03:41:18.939Z,19.40
2018-06-03T03:43:46.074Z,19.37
2018-06-03T03:46:13.263Z,19.36
2018-06-03T03:48:40.405Z,19.40
2018-06-03T03:51:07.554Z,19.45
2018-06-03T03:53:34.804Z,19.35
2018-06-03T03:56:02.167Z,19.40
2018-06-03T03:58:29.317Z,19.44
2018-06-03T04:00:56.529Z,19.44
2018-06-03T04:03:23.733Z,19.42
2018-06-03T04:05:51.067Z,19.52
2018-06-03T04:08:18.242Z,19.37
2018-06-03T04:10:46.327Z,19.26
2018-06-03T04:13:13.864Z,19.43
2018-06-03T04:15:41.016Z,19.44
2018-06-03T04:18:09.269Z,19.37
2018-06-03T04:20:36.611Z,19.41
2018-06-03T04:23:03.887Z,19.34
2018-06-03T04:25:31.061Z,19.32
2018-06-03T04:27:58.176Z,19.32
2018-06-03T04:30:25.496Z,19.37
2018-06-03T04:32:52.618Z,19.29
2018-06-03T04:35:19.808Z,19.26
2018-06-03T04:37:47.204Z,19.31
2018-06-03T04:40:14.309Z,19.33
2018-06-03T04:42:41.532Z,19.32
2018-06-03T04:45:08.847Z,19.30
2018-06-03T04:47:36.255Z,19.18
2018-06-03T04:50:03.403Z,19.17
2018-06-03T04:52:30.843Z,19.22
2018-06-03T04:54:58.409Z,19.22
2018-06-03T04:57:25.547Z,19.23
2018-06-03T04:59:52.745Z,19.16
2018-06-03T05:02:19.867Z,19.10
2018-06-03T05:04:47.197Z,19.08
2018-06-03T05:07:14.537Z,19.11
2018-06-03T05:09:42.555Z,19.11
2018-06-03T05:12:09.660Z,19.09
2018-06-03T05:14:36.991Z,19.03
2018-06-03T05:17:04.256Z,19.09
2018-06-03T05:19:31.475Z,18.97
2018-06-03T05:21:58.737Z,18.96
2018-06-03T05:24:25.892Z,18.93
2018-06-03T05:26:53.014Z,18.93
2018-06-03T05:29:20.279Z,18.84
2018-06-03T05:31:47.504Z,18.87
2018-06-03T05:34:14.622Z,18.89
2018-06-03T05:36:43.058Z,18.85
2018-06-03T05:39:10.274Z,18.92
2018-06-03T05:41:37.420Z,18.85
2018-06-03T05:44:04.687Z,18.93
2018-06-03T05:46:32.281Z,18.85
2018-06-03T05:48:59.434Z,18.93
2018-06-03T05:51:26.627Z,18.90
2018-06-03T05:53:53.784Z,18.99
2018-06-03T05:56:21.017Z,18.96
2018-06-03T05:58:48.733Z,18.99
2018-06-03T06:01:15.986Z,19.03
2018-06-03T06:03:43.131Z,19.04
2018-06-03T06:06:10.339Z,19.03
2018-06-03T06:08:37.610Z,19.02
2018-06-03T06:11:04.723Z,19.08
2018-06-03T06:13:31.937Z,19.03
2018-06-03T06:15:59.111Z,19.09
2018-06-03T06:18:26.263Z,19.24
2018-06-03T06:20:53.537Z,19.16
2018-06-03T06:23:20.756Z,19.24
2018-06-03T06:25:47.887Z,19.23
2018-06-03T06:28:15.324Z,19.38
2018-06-03T06:30:42.496Z,19.37
2018-06-03T06:33:09.729Z,19.36
2018-06-03T06:35:36.975Z,19.44
2018-06-03T06:38:04.124Z,19.51
2018-06-03T06:40:31.253Z,19.61
2018-06-03T06:42:58.564Z,19.56
2018-06-03T06:45:26.355Z,19.56
2018-06-03T06:47:53.474Z,19.64
2018-06-03T06:50:20.623Z,19.70
2018-06-03T06:52:47.748Z,19.62
2018-06-03T06:55:14.920Z,19.65
2018-06-03T06:57:42.197Z,19.75
2018-06-03T07:00:09.326Z,19.78
2018-06-03T07:02:36.444Z,19.86
2018-06-03T07:05:03.666Z,19.90
2018-06-03T07:07:30.757Z,19.94
2018-06-03T07:09:57.957Z,19.92
2018-06-03T07:12:25.188Z,19.97
2018-06-03T07:14:52.335Z,19.92
2018-06-03T07:17:19.444Z,19.88
2018-06-03T07:19:46.653Z,19.79
2018-06-03T07:22:13.856Z,19.76
2018-06-03T07:24:40.948Z,19.78
2018-06-03T07:27:08.157Z,19.75
2018-06-03T07:29:35.305Z,19.83
2018-06-03T07:32:02.435Z,19.74
2018-06-03T07:34:30.484Z,19.78
2018-06-03T07:36:57.582Z,19.75
2018-06-03T07:39:24.693Z,19.77
2018-06-03T07:41:51.844Z,19.73
2018-06-03T07:44:18.923Z,19.68
2018-06-03T07:46:46.104Z,19.69
2018-06-03T07:49:13.242Z,19.69
2018-06-03T07:51:40.408Z,19.74
2018-06-03T07:54:07.530Z,19.65
2018-06-03T07:56:34.693Z,19.72
2018-06-03T07:59:01.963Z,19.68
2018-06-03T08:01:29.169Z,19.73
2018-06-03T08:03:56.671Z,19.70
2018-06-03T08:06:23.792Z,19.68
2018-06-03T08:08:50.890Z,19.64
2018-06-03T08:11:18.113Z,19.63
2018-06-03T08:13:45.217Z,19.48
2018-06-03T08:16:12.386Z,19.59
2018-06-03T08:18:39.547Z,19.59
2018-06-03T08:21:06.698Z,19.53
2018-06-03T08:23:33.938Z,19.48
2018-06-03T08:26:01.330Z,19.26
2018-06-03T08:28:28.517Z,19.34
2018-06-03T08:30:55.657Z,19.37
2018-06-03T08:33:22.811Z,19.39
2018-06-03T08:35:49.995Z,19.35
2018-06-03T08:38:17.133Z,19.37
2018-06-03T08:40:44.277Z,19.45
2018-06-03T08:43:11.410Z,19.50
2018-06-03T08:45:38.541Z,19.48
2018-06-03T08:48:06.165Z,19.59
2018-06-03T08:50:33.342Z,19.58
2018-06-03T08:53:00.424Z,19.61
2018-06-03T08:55:27.707Z,19.56
2018-06-03T08:57:54.822Z,19.53
2018-06-03T09:00:22.034Z,19.48
2018-06-03T09:02:49.217Z,19.50
2018-06-03T09:05:16.361Z,19.62
2018-06-03T09:07:43.524Z,19.55
2018-06-03T09:10:10.728Z,19.44
2018-06-03T09:12:37.872Z,19.39
2018-06-03T09:15:05.380Z,19.40
2018-06-03T09:17:32.588Z,19.37
2018-06-03T09:19:59.729Z,19.42
2018-06-03T09:22:26.917Z,19.36
2018-06-03T09:24:54.606Z,19.35
2018-06-03T09:27:21.949Z,19.47
2018-06-03T09:29:49.033Z,19.77
2018-06-03T09:32:16.225Z,20.04
2018-06-03T09:34:43.458Z,20.32
2018-06-03T09:37:10.595Z,20.36
2018-06-03T09:39:37.788Z,20.49
2018-06-03T09:42:05.055Z,20.50
2018-06-03T09:44:32.295Z,20.57
2018-06-03T09:46:59.548Z,20.58
2018-06-03T09:49:26.636Z,20.86
2018-06-03T09:51:53.789Z,21.05
2018-06-03T09:54:20.944Z,21.13
2018-06-03T09:56:48.073Z,21.04
2018-06-03T09:59:15.275Z,20.99
2018-06-03T10:01:42.424Z,20.66
2018-06-03T10:04:09.536Z,20.59
2018-06-03T10:06:36.705Z,20.38
2018-06-03T10:09:05.742Z,20.27
2018-06-03T10:11:32.980Z,20.35
2018-06-03T10:14:00.201Z,20.45
2018-06-03T10:16:27.436Z,20.41
2018-06-03T10:18:54.587Z,20.56
2018-06-03T10:21:21.671Z,20.91
2018-06-03T10:23:48.914Z,21.33
2018-06-03T10:26:16.132Z,21.75
2018-06-03T10:28:43.271Z,21.77
2018-06-03T10:31:10.432Z,22.17
2018-06-03T10:33:37.629Z,22.53
2018-06-03T10:36:04.893Z,22.67
2018-06-03T10:38:32.102Z,22.67
2018-06-03T10:40:59.265Z,22.20
2018-06-03T10:43:26.501Z,22.39
2018-06-03T10:45:53.658Z,21.95
2018-06-03T10:48:21.417Z,21.55
2018-06-03T10:50:48.665Z,21.60
2018-06-03T10:53:15.924Z,21.28
2018-06-03T10:55:43.155Z,21.31
2018-06-03T10:58:10.333Z,21.40
2018-06-03T11:00:37.808Z,21.49
2018-06-03T11:03:05.012Z,21.52
2018-06-03T11:05:32.118Z,21.82
2018-06-03T11:07:59.255Z,21.86
2018-06-03T11:10:26.603Z,21.91
2018-06-03T11:12:53.703Z,21.79
2018-06-03T11:15:20.829Z,22.14
2018-06-03T11:17:48.174Z,22.14
2018-06-03T11:20:15.313Z,22.59
2018-06-03T11:22:42.486Z,23.01
2018-06-03T11:25:09.671Z,23.33
2018-06-03T11:27:37.060Z,23.30
2018-06-03T11:30:04.268Z,22.81
2018-06-03T11:32:31.354Z,22.36
2018-06-03T11:34:58.680Z,22.00
2018-06-03T11:37:25.979Z,21.99
2018-06-03T11:39:53.102Z,21.98
2018-06-03T11:42:20.269Z,22.25
2018-06-03T11:44:47.444Z,22.51
2018-06-03T11:47:14.580Z,22.41
2018-06-03T11:49:42.524Z,22.58
2018-06-03T11:52:09.725Z,22.77
2018-06-03T11:54:37.417Z,23.41
2018-06-03T11:57:04.577Z,24.64
2018-06-03T11:59:41.198Z,25.62
2018-06-03T12:02:09.307Z,25.23
2018-06-03T12:04:36.689Z,24.74
2018-06-03T12:07:04.020Z,24.83
2018-06-03T12:09:31.143Z,24.79
2018-06-03T12:11:58.454Z,24.74
2018-06-03T12:14:25.616Z,25.11
2018-06-03T12:16:58.548Z,25.00
2018-06-03T12:19:25.732Z,24.80
2018-06-03T12:21:52.859Z,24.66
2018-06-03T12:24:20.004Z,24.39
2018-06-03T12:26:47.132Z,24.14
2018-06-03T12:29:14.361Z,23.85
2018-06-03T12:31:41.610Z,23.60
2018-06-03T12:34:08.729Z,23.15
2018-06-03T12:36:35.932Z,23.44
2018-06-03T12:39:05.526Z,23.85
2018-06-03T12:41:32.716Z,24.29
2018-06-03T12:43:59.988Z,24.76
2018-06-03T12:46:27.182Z,25.03
2018-06-03T12:48:54.388Z,25.67
2018-06-03T12:51:22.129Z,25.93
2018-06-03T12:53:49.316Z,25.90
2018-06-03T12:56:16.546Z,26.25
2018-06-03T12:58:43.733Z,26.19
2018-06-03T13:01:10.886Z,26.34
2018-06-03T13:03:38.105Z,26.51
2018-06-03T13:06:05.455Z,26.50
2018-06-03T13:08:32.609Z,26.62
2018-06-03T13:10:59.831Z,26.69
2018-06-03T13:13:27.015Z,26.79
2018-06-03T13:15:54.848Z,26.98
2018-06-03T13:18:22.070Z,26.64
2018-06-03T13:20:49.313Z,26.21
2018-06-03T13:23:16.496Z,26.15
2018-06-03T13:25:43.604Z,26.07
2018-06-03T13:28:10.880Z,26.24
2018-06-03T13:30:38.041Z,26.22
2018-06-03T13:33:05.271Z,26.81
2018-06-03T13:35:32.469Z,27.11
2018-06-03T13:37:59.619Z,26.93
2018-06-03T13:40:27.873Z,27.13
2018-06-03T13:42:55.075Z,27.35
2018-06-03T13:45:22.225Z,27.54
2018-06-03T13:47:49.777Z,27.62
2018-06-03T13:50:17.014Z,27.75
2018-06-03T13:52:44.296Z,27.58
2018-06-03T13:55:11.447Z,27.24
2018-06-03T13:57:38.673Z,27.04
2018-06-03T14:00:05.904Z,27.34
2018-06-03T14:02:34.429Z,26.91
2018-06-03T14:05:02.676Z,26.87
2018-06-03T14:07:29.917Z,27.37
2018-06-03T14:09:57.025Z,27.09
2018-06-03T14:12:24.236Z,27.53
2018-06-03T14:14:51.397Z,27.66
2018-06-03T14:17:18.592Z,27.50
2018-06-03T14:19:46.059Z,28.22
2018-06-03T14:22:13.930Z,28.41
2018-06-03T14:24:41.123Z,28.85
2018-06-03T14:27:08.328Z,28.34
2018-06-03T14:29:35.568Z,28.90
2018-06-03T14:32:03.036Z,28.84
2018-06-03T14:34:30.236Z,28.92
2018-06-03T14:36:57.466Z,28.24
2018-06-03T14:40:27.847Z,27.75
2018-06-03T14:42:55.082Z,27.15
2018-06-03T14:45:22.267Z,27.56
2018-06-03T14:47:50.013Z,28.08
2018-06-03T14:50:17.191Z,27.65
2018-06-03T14:52:44.345Z,27.57
2018-06-03T14:55:11.519Z,28.33
2018-06-03T14:57:39.684Z,29.68
2018-06-03T15:00:06.787Z,29.57
2018-06-03T15:02:33.969Z,29.41
2018-06-03T15:05:01.117Z,28.76
2018-06-03T15:07:28.271Z,28.87
2018-06-03T15:09:55.465Z,31.01
2018-06-03T15:12:22.685Z,31.92
2018-06-03T15:14:49.821Z,32.50
2018-06-03T15:17:17.016Z,33.80
2018-06-03T15:19:44.169Z,33.13
2018-06-03T15:22:11.572Z,32.50
2018-06-03T15:24:39.143Z,34.58
2018-06-03T15:27:06.335Z,34.52
2018-06-03T15:29:33.481Z,34.19
2018-06-03T15:32:00.646Z,35.17
2018-06-03T15:34:27.777Z,36.04
2018-06-03T15:36:54.986Z,35.91
2018-06-03T15:39:22.197Z,35.28
2018-06-03T15:41:49.321Z,34.57
2018-06-03T15:44:16.606Z,32.83
2018-06-03T15:46:43.911Z,34.10
2018-06-03T15:49:11.068Z,33.46
2018-06-03T15:51:38.171Z,32.33
2018-06-03T15:54:05.355Z,31.65
2018-06-03T15:56:32.629Z,30.48
2018-06-03T15:58:59.766Z,29.37
2018-06-03T16:01:27.550Z,28.82
2018-06-03T16:03:54.688Z,28.62
2018-06-03T16:06:21.833Z,28.24
2018-06-03T16:08:49.054Z,28.11
2018-06-03T16:11:16.302Z,27.72
2018-06-03T16:13:43.417Z,27.55
2018-06-03T16:16:10.650Z,27.39
2018-06-03T16:18:37.719Z,27.03
2018-06-03T16:21:04.925Z,26.86
2018-06-03T16:23:32.202Z,26.82
2018-06-03T16:26:00.350Z,26.90
2018-06-03T16:28:27.480Z,26.65
2018-06-03T16:30:54.672Z,26.18
2018-06-03T16:33:21.879Z,26.02
2018-06-03T16:35:48.966Z,26.05
2018-06-03T16:38:16.152Z,26.03
2018-06-03T16:40:43.244Z,25.98
2018-06-03T16:43:10.404Z,26.01
2018-06-03T16:45:37.592Z,25.98
2018-06-03T16:48:04.835Z,25.83
2018-06-03T16:50:31.997Z,25.83
2018-06-03T16:52:59.189Z,25.91
2018-06-03T16:55:26.340Z,25.66
2018-06-03T16:57:53.428Z,25.28
2018-06-03T17:00:20.641Z,25.33
2018-06-03T17:02:47.716Z,25.20
2018-06-03T17:05:14.870Z,25.00
2018-06-03T17:07:42.075Z,24.97
2018-06-03T17:10:09.268Z,24.89
2018-06-03T17:12:36.473Z,24.87
2018-06-03T17:15:03.725Z,24.64
2018-06-03T17:17:30.843Z,24.56
2018-06-03T17:19:57.964Z,24.54
2018-06-03T17:22:25.141Z,24.49
2018-06-03T17:24:52.281Z,24.41
2018-06-03T17:27:19.443Z,24.36
2018-06-03T17:29:46.584Z,24.43
2018-06-03T17:32:13.770Z,24.36
2018-06-03T17:34:40.877Z,24.16
2018-06-03T17:37:08.049Z,24.15
2018-06-03T17:39:35.171Z,24.12
2018-06-03T17:42:02.284Z,24.20
2018-06-03T17:44:29.555Z,24.21
2018-06-03T17:46:56.725Z,24.12
2018-06-03T17:49:23.841Z,24.20
2018-06-03T17:51:51.015Z,24.28
2018-06-03T17:54:18.237Z,24.28
2018-06-03T17:56:45.493Z,24.26
2018-06-03T17:59:12.775Z,24.26
2018-06-03T18:01:39.957Z,24.29
2018-06-03T18:04:07.146Z,24.23
2018-06-03T18:06:34.308Z,24.19
2018-06-03T18:09:01.452Z,24.00
2018-06-03T18:11:28.580Z,23.84
2018-06-03T18:13:55.757Z,23.68
2018-06-03T18:16:22.926Z,23.64
2018-06-03T18:18:50.073Z,23.54
2018-06-03T18:21:17.299Z,23.38
2018-06-03T18:23:44.458Z,23.26
2018-06-03T18:26:11.622Z,23.18
2018-06-03T18:28:38.990Z,23.08
2018-06-03T18:31:06.431Z,23.06
2018-06-03T18:33:33.534Z,22.87
2018-06-03T18:36:00.703Z,22.85
2018-06-03T18:38:27.888Z,22.66
2018-06-03T18:40:55.049Z,22.54
2018-06-03T18:43:22.253Z,22.49
2018-06-03T18:45:49.481Z,22.37
2018-06-03T18:48:16.793Z,22.31
2018-06-03T18:50:44.016Z,22.23
2018-06-03T18:53:11.171Z,22.20
2018-06-03T18:55:38.257Z,22.10
2018-06-03T18:58:05.441Z,21.94
2018-06-03T19:00:32.565Z,21.85
2018-06-03T19:02:59.944Z,21.74
2018-06-03T19:05:27.128Z,21.58
2018-06-03T19:07:54.251Z,21.51
2018-06-03T19:10:21.453Z,21.38
2018-06-03T19:12:48.627Z,21.20
2018-06-03T19:15:15.760Z,21.05
2018-06-03T19:17:47.826Z,20.92
2018-06-03T19:20:14.980Z,20.86
2018-06-03T19:22:42.107Z,20.74
2018-06-03T19:25:09.316Z,20.58
2018-06-03T19:27:36.491Z,20.48
2018-06-03T19:30:03.640Z,20.37
2018-06-03T19:32:30.784Z,20.26
2018-06-03T19:34:57.987Z,20.16
2018-06-03T19:37:25.122Z,20.07
2018-06-03T19:39:52.357Z,19.96
2018-06-03T19:42:19.504Z,19.88
2018-06-03T19:44:46.639Z,19.76
2018-06-03T19:47:13.830Z,19.67
2018-06-03T19:49:41.044Z,19.60
2018-06-03T19:52:08.172Z,19.52
2018-06-03T19:54:35.321Z,19.45
2018-06-03T19:57:02.493Z,19.37
2018-06-03T19:59:29.648Z,19.31
2018-06-03T20:01:57.601Z,19.22
2018-06-03T20:04:25.086Z,19.18
2018-06-03T20:06:52.312Z,19.13
2018-06-03T20:09:19.443Z,19.06
2018-06-03T20:11:46.548Z,19.01
2018-06-03T20:14:14.028Z,18.94
2018-06-03T20:16:41.313Z,18.89
2018-06-03T20:19:08.448Z,18.86
2018-06-03T20:21:35.706Z,18.82
2018-06-03T20:24:03.074Z,18.77
2018-06-03T20:26:31.076Z,18.72
2018-06-03T20:28:58.234Z,18.68
2018-06-03T20:31:26.085Z,18.62
2018-06-03T20:33:53.639Z,18.57
2018-06-03T20:36:20.792Z,18.53
2018-06-03T20:38:47.931Z,18.51
2018-06-03T20:41:15.338Z,18.51
2018-06-03T20:43:42.485Z,18.48
2018-06-03T20:46:09.633Z,18.43
2018-06-03T20:48:36.719Z,18.36
2018-06-03T20:51:03.905Z,18.32
2018-06-03T20:53:31.097Z,18.28
2018-06-03T20:55:58.198Z,18.21
2018-06-03T20:58:25.332Z,18.19
2018-06-03T21:00:52.494Z,18.16
2018-06-03T21:03:19.599Z,18.12
2018-06-03T21:05:46.732Z,18.09
2018-06-03T21:08:13.887Z,18.04
2018-06-03T21:10:40.951Z,18.03
2018-06-03T21:13:08.117Z,17.99
2018-06-03T21:15:35.287Z,17.96
2018-06-03T21:18:02.437Z,17.95
2018-06-03T21:20:29.573Z,17.94
2018-06-03T21:22:56.772Z,17.94
2018-06-03T21:25:23.867Z,17.97
2018-06-03T21:27:51.011Z,17.95
2018-06-03T21:30:18.200Z,17.98
2018-06-03T21:32:45.303Z,17.97
2018-06-03T21:35:12.423Z,17.92
2018-06-03T21:37:39.575Z,17.87
2018-06-03T21:40:06.687Z,17.82
2018-06-03T21:42:33.932Z,17.80
2018-06-03T21:45:01.240Z,17.75
2018-06-03T21:47:28.353Z,17.73
2018-06-03T21:49:55.468Z,17.65
2018-06-03T21:52:22.744Z,17.60
2018-06-03T21:54:49.895Z,17.52
2018-06-03T21:57:17.032Z,17.51
2018-06-03T21:59:44.259Z,17.48
2018-06-03T22:02:11.351Z,17.43
2018-06-03T22:04:38.469Z,17.40
2018-06-03T22:07:05.624Z,17.41
2018-06-03T22:09:32.761Z,17.44
2018-06-03T22:11:59.961Z,17.48
2018-06-03T22:14:27.208Z,17.51
2018-06-03T22:16:54.312Z,17.54
2018-06-03T22:19:21.416Z,17.52
2018-06-03T22:21:48.572Z,17.51
2018-06-03T22:24:15.720Z,17.50
2018-06-03T22:26:42.901Z,17.46
2018-06-03T22:29:10.041Z,17.38
2018-06-03T22:31:37.199Z,17.37
2018-06-03T22:34:04.449Z,17.29
2018-06-03T22:36:31.700Z,17.28
2018-06-03T22:38:58.910Z,17.26
2018-06-03T22:41:26.008Z,17.17
2018-06-03T22:43:53.251Z,17.08
2018-06-03T22:46:20.363Z,17.04
2018-06-03T22:48:47.511Z,17.08
2018-06-03T22:51:14.670Z,17.04
2018-06-03T22:53:41.831Z,17.03
2018-06-03T22:56:08.991Z,17.03
2018-06-03T22:58:36.559Z,17.00
2018-06-03T23:01:03.738Z,17.11
2018-06-03T23:03:30.895Z,17.12
2018-06-03T23:05:58.062Z,17.14
2018-06-03T23:08:25.185Z,17.17
2018-06-03T23:10:52.295Z,17.18
2018-06-03T23:13:19.509Z,17.14
2018-06-03T23:15:46.629Z,17.13
2018-06-03T23:18:13.730Z,17.16
2018-06-03T23:20:40.911Z,17.20
2018-06-03T23:23:08.016Z,17.14
2018-06-03T23:25:36.086Z,17.17
2018-06-03T23:28:03.284Z,17.19
2018-06-03T23:30:30.411Z,17.15
2018-06-03T23:32:57.499Z,17.07
2018-06-03T23:35:24.631Z,16.98
2018-06-03T23:37:51.763Z,16.88
2018-06-03T23:40:18.893Z,16.86
2018-06-03T23:42:46.085Z,16.77
2018-06-03T23:45:13.195Z,16.71
2018-06-03T23:47:40.331Z,16.65
2018-06-03T23:50:07.465Z,16.58
2018-06-03T23:52:34.555Z,16.50
2018-06-03T23:55:01.741Z,16.54
2018-06-03T23:57:28.892Z,16.56
2018-06-03T23:59:55.995Z,16.52
